Time,TemperatureF,DewpointF,PressureIn,WindDirection,WindDirectionDegrees,WindSpeedMPH,WindSpeedGustMPH,Humidity,HourlyPrecipIn,Conditions,Clouds,dailyrainin,SoftwareType,DateUTC
2013-11-18 00:02:00,45.9,41.4,29.06,West,274,4.0,7.8,84,0.00,,,-99.99,FreeWX 2.04,2013-11-18 05:02:00,
2013-11-18 00:07:00,45.9,41.5,29.06,West,281,4.0,8.3,85,0.00,,,-99.99,FreeWX 2.04,2013-11-18 05:07:00,
2013-11-18 00:12:00,45.7,41.4,29.09,West,281,4.0,8.7,85,0.00,,,-99.99,FreeWX 2.04,2013-11-18 05:12:00,
2013-11-18 00:17:00,45.7,41.4,29.09,West,281,4.0,7.8,85,0.00,,,-99.99,FreeWX 2.04,2013-11-18 05:17:00,
2013-11-18 00:22:00,45.7,41.4,29.09,WNW,291,4.0,7.4,85,0.00,,,-99.99,FreeWX 2.04,2013-11-18 05:22:00,
2013-11-18 00:27:00,45.5,41.2,29.09,WNW,285,4.0,7.8,85,0.00,,,-99.99,FreeWX 2.04,2013-11-18 05:27:00,
2013-11-18 00:32:00,45.5,41.2,29.09,WNW,287,4.0,13.0,85,0.00,,,-99.99,FreeWX 2.04,2013-11-18 05:32:00,
2013-11-18 00:37:00,45.3,41.4,29.09,WNW,291,5.0,9.2,86,0.00,,,-99.99,FreeWX 2.04,2013-11-18 05:37:00,
2013-11-18 00:42:00,45.3,41.4,29.12,WNW,284,5.0,13.4,86,0.00,,,-99.99,FreeWX 2.04,2013-11-18 05:42:00,
2013-11-18 00:47:00,44.8,40.8,29.12,West,279,6.0,13.0,86,0.00,,,-99.99,FreeWX 2.04,2013-11-18 05:47:00,
2013-11-18 00:52:00,44.6,40.6,29.12,WNW,283,6.0,9.6,86,0.00,,,-99.99,FreeWX 2.04,2013-11-18 05:52:00,
2013-11-18 00:58:00,44.2,40.1,29.14,WNW,284,5.0,11.0,85,0.00,,,-99.99,FreeWX 2.04,2013-11-18 05:58:00,
2013-11-18 01:03:00,44.1,39.9,29.14,West,281,5.0,9.6,85,0.00,,,-99.99,FreeWX 2.04,2013-11-18 06:03:00,
2013-11-18 01:08:00,43.7,39.6,29.14,WNW,282,5.0,11.2,85,0.00,,,-99.99,FreeWX 2.04,2013-11-18 06:08:00,
2013-11-18 01:13:00,43.7,39.7,29.14,West,280,5.0,11.0,86,0.00,,,-99.99,FreeWX 2.04,2013-11-18 06:13:00,
2013-11-18 01:18:00,43.5,39.6,29.14,West,277,5.0,9.6,86,0.00,,,-99.99,FreeWX 2.04,2013-11-18 06:18:00,
2013-11-18 01:23:00,43.5,39.6,29.14,West,272,5.0,11.2,86,0.00,,,-99.99,FreeWX 2.04,2013-11-18 06:23:00,
2013-11-18 01:28:00,43.5,39.6,29.17,West,271,5.0,10.5,86,0.00,,,-99.99,FreeWX 2.04,2013-11-18 06:28:00,
2013-11-18 01:33:00,43.7,39.7,29.17,West,272,5.0,12.5,86,0.00,,,-99.99,FreeWX 2.04,2013-11-18 06:33:00,
2013-11-18 01:38:00,43.9,39.9,29.17,West,275,5.0,13.9,86,0.00,,,-99.99,FreeWX 2.04,2013-11-18 06:38:00,
2013-11-18 01:43:00,43.9,39.9,29.17,WNW,285,5.0,11.2,86,0.00,,,-99.99,FreeWX 2.04,2013-11-18 06:43:00,
2013-11-18 01:48:00,44.1,40.1,29.17,WNW,285,5.0,12.1,86,0.00,,,-99.99,FreeWX 2.04,2013-11-18 06:48:00,
2013-11-18 01:53:00,44.1,40.1,29.17,WNW,284,5.0,13.4,86,0.00,,,-99.99,FreeWX 2.04,2013-11-18 06:53:00,
2013-11-18 01:58:00,43.9,39.9,29.20,West,276,6.0,15.9,86,0.00,,,-99.99,FreeWX 2.04,2013-11-18 06:58:00,
2013-11-18 02:03:00,43.7,39.7,29.20,West,273,5.0,13.0,86,0.00,,,-99.99,FreeWX 2.04,2013-11-18 07:03:00,
2013-11-18 02:08:00,43.7,39.7,29.20,WNW,284,5.0,10.5,86,0.00,,,-99.99,FreeWX 2.04,2013-11-18 07:08:00,
2013-11-18 02:13:00,43.0,39.0,29.23,WNW,287,6.0,18.1,86,0.00,,,-99.99,FreeWX 2.04,2013-11-18 07:13:00,
2013-11-18 02:18:00,43.2,39.2,29.23,WNW,282,6.0,11.6,86,0.00,,,-99.99,FreeWX 2.04,2013-11-18 07:18:00,
2013-11-18 02:23:00,42.8,38.8,29.23,West,280,6.0,12.5,86,0.00,,,-99.99,FreeWX 2.04,2013-11-18 07:23:00,
2013-11-18 02:28:00,42.6,38.5,29.23,West,281,7.0,11.6,85,0.00,,,-99.99,FreeWX 2.04,2013-11-18 07:28:00,
2013-11-18 02:33:00,41.9,37.0,29.23,WNW,289,6.0,13.9,83,0.00,,,-99.99,FreeWX 2.04,2013-11-18 07:33:00,
2013-11-18 02:38:00,42.6,36.9,29.23,WNW,286,6.0,10.1,80,0.00,,,-99.99,FreeWX 2.04,2013-11-18 07:38:00,
2013-11-18 02:43:00,42.4,36.1,29.26,West,273,4.0,7.8,78,0.00,,,-99.99,FreeWX 2.04,2013-11-18 07:43:00,
2013-11-18 02:48:00,42.1,35.1,29.26,West,277,5.0,11.2,76,0.00,,,-99.99,FreeWX 2.04,2013-11-18 07:48:00,
2013-11-18 02:53:00,42.1,34.7,29.26,West,278,5.0,11.2,75,0.00,,,-99.99,FreeWX 2.04,2013-11-18 07:53:00,
2013-11-18 02:58:00,41.7,34.3,29.26,West,274,4.0,9.2,75,0.00,,,-99.99,FreeWX 2.04,2013-11-18 07:58:00,
2013-11-18 03:03:00,41.4,33.1,29.26,West,276,4.0,9.2,72,0.00,,,-99.99,FreeWX 2.04,2013-11-18 08:03:00,
2013-11-18 03:08:00,41.2,32.5,29.26,West,281,5.0,10.5,71,0.00,,,-99.99,FreeWX 2.04,2013-11-18 08:08:00,
2013-11-18 03:13:00,41.4,32.4,29.29,West,274,6.0,9.6,70,0.00,,,-99.99,FreeWX 2.04,2013-11-18 08:13:00,
2013-11-18 03:18:00,41.4,32.0,29.29,West,267,5.0,8.3,69,0.00,,,-99.99,FreeWX 2.04,2013-11-18 08:18:00,
2013-11-18 03:23:00,41.5,31.8,29.29,West,281,4.0,9.6,68,0.00,,,-99.99,FreeWX 2.04,2013-11-18 08:23:00,
2013-11-18 03:28:00,41.5,31.5,29.29,West,281,5.0,12.5,67,0.00,,,-99.99,FreeWX 2.04,2013-11-18 08:28:00,
2013-11-18 03:33:00,41.5,29.8,29.29,West,277,5.0,9.2,63,0.00,,,-99.99,FreeWX 2.04,2013-11-18 08:33:00,
2013-11-18 03:38:00,41.7,29.7,29.29,West,278,5.0,11.2,62,0.00,,,-99.99,FreeWX 2.04,2013-11-18 08:38:00,
2013-11-18 03:43:00,41.7,28.9,29.29,West,274,4.0,13.0,60,0.00,,,-99.99,FreeWX 2.04,2013-11-18 08:43:00,
2013-11-18 03:48:00,41.7,28.0,29.29,West,280,5.0,9.6,58,0.00,,,-99.99,FreeWX 2.04,2013-11-18 08:48:00,
2013-11-18 03:53:00,41.4,26.4,29.29,WNW,286,5.0,12.1,55,0.00,,,-99.99,FreeWX 2.04,2013-11-18 08:53:00,
2013-11-18 03:58:00,41.4,26.1,29.29,WNW,288,5.0,13.0,54,0.00,,,-99.99,FreeWX 2.04,2013-11-18 08:58:00,
2013-11-18 04:03:00,41.2,25.9,29.29,WNW,291,5.0,6.9,54,0.00,,,-99.99,FreeWX 2.04,2013-11-18 09:03:00,
2013-11-18 04:08:00,41.0,25.7,29.29,West,279,4.0,8.3,54,0.00,,,-99.99,FreeWX 2.04,2013-11-18 09:08:00,
2013-11-18 04:13:00,41.0,25.7,29.32,West,273,4.0,9.6,54,0.00,,,-99.99,FreeWX 2.04,2013-11-18 09:13:00,
2013-11-18 04:18:00,41.2,25.3,29.32,West,281,5.0,11.2,53,0.00,,,-99.99,FreeWX 2.04,2013-11-18 09:18:00,
2013-11-18 04:23:00,41.4,24.1,29.32,WNW,289,5.0,15.9,50,0.00,,,-99.99,FreeWX 2.04,2013-11-18 09:23:00,
2013-11-18 04:28:00,41.5,23.4,29.32,WNW,290,5.0,10.5,48,0.00,,,-99.99,FreeWX 2.04,2013-11-18 09:28:00,
2013-11-18 04:33:00,41.5,23.4,29.32,WNW,285,5.0,12.5,48,0.00,,,-99.99,FreeWX 2.04,2013-11-18 09:33:00,
2013-11-18 04:38:00,41.7,22.5,29.32,West,276,5.0,13.0,46,0.00,,,-99.99,FreeWX 2.04,2013-11-18 09:38:00,
2013-11-18 04:43:00,41.5,22.8,29.32,West,265,5.0,14.3,47,0.00,,,-99.99,FreeWX 2.04,2013-11-18 09:43:00,
2013-11-18 04:48:00,41.4,23.2,29.32,West,261,4.0,10.1,48,0.00,,,-99.99,FreeWX 2.04,2013-11-18 09:48:00,
2013-11-18 04:53:00,41.4,23.2,29.32,West,268,4.0,15.4,48,0.00,,,-99.99,FreeWX 2.04,2013-11-18 09:53:00,
2013-11-18 04:58:00,41.4,23.7,29.35,West,266,4.0,10.5,49,0.00,,,-99.99,FreeWX 2.04,2013-11-18 09:58:00,
2013-11-18 06:15:00,40.3,21.2,29.35,WNW,302,3.0,4.0,46,0.00,,,-99.99,FreeWX 2.04,2013-11-18 11:15:00,
2013-11-18 06:21:00,39.9,21.4,29.35,West,266,4.0,11.0,47,0.00,,,-99.99,FreeWX 2.04,2013-11-18 11:21:00,
2013-11-18 06:26:00,39.7,21.7,29.38,West,272,4.0,6.3,48,0.00,,,-99.99,FreeWX 2.04,2013-11-18 11:26:00,
2013-11-18 06:31:00,39.7,22.1,29.38,West,268,4.0,7.4,49,0.00,,,-99.99,FreeWX 2.04,2013-11-18 11:31:00,
2013-11-18 06:36:00,39.7,22.1,29.38,West,270,4.0,6.3,49,0.00,,,-99.99,FreeWX 2.04,2013-11-18 11:36:00,
2013-11-18 06:41:00,39.7,22.6,29.38,West,272,4.0,13.0,50,0.08,,,-99.99,FreeWX 2.04,2013-11-18 11:41:00,
2013-11-18 06:46:00,39.2,21.7,29.38,West,269,4.0,7.8,49,0.08,,,-99.99,FreeWX 2.04,2013-11-18 11:46:00,
2013-11-18 06:51:00,38.7,21.6,29.38,West,278,4.0,9.2,50,0.08,,,-99.99,FreeWX 2.04,2013-11-18 11:51:00,
2013-11-18 06:56:00,38.5,21.9,29.38,West,277,4.0,8.7,51,0.08,,,-99.99,FreeWX 2.04,2013-11-18 11:56:00,
2013-11-18 07:01:00,38.5,22.5,29.38,West,271,4.0,8.7,52,0.08,,,-99.99,FreeWX 2.04,2013-11-18 12:01:00,
2013-11-18 07:06:00,38.5,22.8,29.38,West,268,4.0,5.4,53,0.08,,,-99.99,FreeWX 2.04,2013-11-18 12:06:00,
2013-11-18 07:11:00,38.5,22.8,29.38,West,260,3.0,6.9,53,0.08,,,-99.99,FreeWX 2.04,2013-11-18 12:11:00,
2013-11-18 07:16:00,38.7,23.5,29.38,West,263,4.0,9.2,54,0.08,,,-99.99,FreeWX 2.04,2013-11-18 12:16:00,
2013-11-18 07:21:00,38.8,24.1,29.38,West,264,4.0,8.7,55,0.08,,,-99.99,FreeWX 2.04,2013-11-18 12:21:00,
2013-11-18 07:26:00,38.8,24.1,29.38,West,268,3.0,5.4,55,0.08,,,-99.99,FreeWX 2.04,2013-11-18 12:26:00,
2013-11-18 07:31:00,38.8,24.1,29.38,West,281,2.0,6.3,55,0.08,,,-99.99,FreeWX 2.04,2013-11-18 12:31:00,
2013-11-18 07:36:00,39.0,24.6,29.38,West,275,3.0,9.6,56,0.08,,,-99.99,FreeWX 2.04,2013-11-18 12:36:00,
2013-11-18 07:41:00,39.2,24.8,29.38,West,272,4.0,10.1,56,0.00,,,-99.99,FreeWX 2.04,2013-11-18 12:41:00,
2013-11-18 07:46:00,39.4,24.6,29.38,West,273,4.0,7.8,55,0.00,,,-99.99,FreeWX 2.04,2013-11-18 12:46:00,
2013-11-18 07:51:00,39.6,24.3,29.38,West,270,4.0,9.2,54,0.00,,,-99.99,FreeWX 2.04,2013-11-18 12:51:00,
2013-11-18 07:56:00,39.6,23.0,29.41,West,280,4.0,11.6,51,0.00,,,-99.99,FreeWX 2.04,2013-11-18 12:56:00,
2013-11-18 08:01:00,39.7,22.6,29.41,WNW,290,5.0,11.2,50,0.00,,,-99.99,FreeWX 2.04,2013-11-18 13:01:00,
2013-11-18 08:06:00,39.6,21.9,29.41,WNW,288,5.0,10.5,49,0.00,,,-99.99,FreeWX 2.04,2013-11-18 13:06:00,
2013-11-18 08:11:00,39.6,21.9,29.41,WNW,291,5.0,10.1,49,0.00,,,-99.99,FreeWX 2.04,2013-11-18 13:11:00,
2013-11-18 08:16:00,39.6,21.6,29.41,West,276,5.0,9.2,48,0.00,,,-99.99,FreeWX 2.04,2013-11-18 13:16:00,
2013-11-18 08:21:00,39.6,20.5,29.41,West,271,5.0,10.5,46,0.00,,,-99.99,FreeWX 2.04,2013-11-18 13:21:00,
2013-11-18 08:26:00,39.6,19.9,29.41,West,280,6.0,13.0,45,0.00,,,-99.99,FreeWX 2.04,2013-11-18 13:26:00,
2013-11-18 08:31:00,39.6,19.9,29.41,West,281,5.0,11.6,45,0.00,,,-99.99,FreeWX 2.04,2013-11-18 13:31:00,
2013-11-18 08:36:00,39.6,19.9,29.41,WNW,283,4.0,10.1,45,0.00,,,-99.99,FreeWX 2.04,2013-11-18 13:36:00,
2013-11-18 08:41:00,39.4,19.8,29.41,WNW,283,4.0,13.4,45,0.00,,,-99.99,FreeWX 2.04,2013-11-18 13:41:00,
2013-11-18 08:46:00,39.2,19.6,29.41,WNW,286,5.0,10.1,45,0.00,,,-99.99,FreeWX 2.04,2013-11-18 13:46:00,
2013-11-18 08:51:00,39.2,19.6,29.41,West,279,4.0,9.6,45,0.00,,,-99.99,FreeWX 2.04,2013-11-18 13:51:00,
2013-11-18 08:56:00,39.2,19.6,29.41,West,272,4.0,7.8,45,0.00,,,-99.99,FreeWX 2.04,2013-11-18 13:56:00,
2013-11-18 09:01:00,39.2,19.6,29.41,West,277,4.0,8.7,45,0.00,,,-99.99,FreeWX 2.04,2013-11-18 14:01:00,
2013-11-18 09:06:00,39.2,19.6,29.41,WNW,284,4.0,6.9,45,0.00,,,-99.99,FreeWX 2.04,2013-11-18 14:06:00,
2013-11-18 09:11:00,38.8,19.8,29.44,WNW,289,4.0,9.6,46,0.00,,,-99.99,FreeWX 2.04,2013-11-18 14:11:00,
2013-11-18 09:16:00,37.9,18.5,29.44,WNW,299,4.0,10.5,45,0.00,,,-99.99,FreeWX 2.04,2013-11-18 14:16:00,
2013-11-18 09:21:00,36.9,17.6,29.44,WNW,302,4.0,7.4,45,0.00,,,-99.99,FreeWX 2.04,2013-11-18 14:21:00,
2013-11-18 09:26:00,36.1,18.3,29.44,WNW,289,3.0,6.3,48,0.00,,,-99.99,FreeWX 2.04,2013-11-18 14:26:00,
2013-11-18 09:31:00,36.1,19.4,29.44,WNW,283,3.0,7.8,50,0.00,,,-99.99,FreeWX 2.04,2013-11-18 14:31:00,
2013-11-18 09:36:00,36.1,19.8,29.44,WNW,289,4.0,8.3,51,0.00,,,-99.99,FreeWX 2.04,2013-11-18 14:36:00,
2013-11-18 09:41:00,36.1,20.3,29.47,WNW,293,3.0,5.4,52,0.04,,,-99.99,FreeWX 2.04,2013-11-18 14:41:00,
2013-11-18 09:46:00,36.1,20.7,29.47,WNW,296,2.0,5.8,53,0.04,,,-99.99,FreeWX 2.04,2013-11-18 14:46:00,
2013-11-18 09:51:00,36.1,21.2,29.47,WNW,290,4.0,8.7,54,0.04,,,-99.99,FreeWX 2.04,2013-11-18 14:51:00,
2013-11-18 09:56:00,35.8,21.2,29.47,West,279,4.0,8.7,55,0.04,,,-99.99,FreeWX 2.04,2013-11-18 14:56:00,
2013-11-18 10:01:00,35.8,22.1,29.47,WNW,283,4.0,11.2,57,0.04,,,-99.99,FreeWX 2.04,2013-11-18 15:01:00,
2013-11-18 10:06:00,36.1,22.8,29.47,WNW,287,4.0,9.6,58,0.04,,,-99.99,FreeWX 2.04,2013-11-18 15:06:00,
2013-11-18 10:11:00,36.1,23.2,29.47,West,274,3.0,6.7,59,0.04,,,-99.99,FreeWX 2.04,2013-11-18 15:11:00,
2013-11-18 10:16:00,36.3,23.7,29.47,West,264,3.0,7.8,60,0.04,,,-99.99,FreeWX 2.04,2013-11-18 15:16:00,
2013-11-18 10:21:00,36.3,23.7,29.47,West,274,4.0,10.5,60,0.04,,,-99.99,FreeWX 2.04,2013-11-18 15:21:00,
2013-11-18 10:26:00,36.3,24.3,29.50,WNW,285,4.0,7.8,61,0.04,,,-99.99,FreeWX 2.04,2013-11-18 15:26:00,
2013-11-18 10:31:00,36.0,24.3,29.50,WNW,291,4.0,9.6,62,0.04,,,-99.99,FreeWX 2.04,2013-11-18 15:31:00,
2013-11-18 10:36:00,36.0,24.6,29.50,WNW,286,3.0,6.3,63,0.04,,,-99.99,FreeWX 2.04,2013-11-18 15:36:00,
2013-11-18 10:41:00,36.3,25.3,29.50,West,281,3.0,6.7,64,0.00,,,-99.99,FreeWX 2.04,2013-11-18 15:41:00,
2013-11-18 10:46:00,36.3,25.3,29.50,West,276,3.0,11.6,64,0.00,,,-99.99,FreeWX 2.04,2013-11-18 15:46:00,
2013-11-18 10:51:00,36.1,25.2,29.50,West,277,4.0,7.8,64,0.00,,,-99.99,FreeWX 2.04,2013-11-18 15:51:00,
2013-11-18 10:56:00,36.3,25.7,29.50,WNW,290,4.0,7.4,65,0.00,,,-99.99,FreeWX 2.04,2013-11-18 15:56:00,
2013-11-18 11:01:00,36.3,26.1,29.50,WNW,292,4.0,9.6,66,0.00,,,-99.99,FreeWX 2.04,2013-11-18 16:01:00,
2013-11-18 11:06:00,36.1,25.5,29.50,WNW,282,4.0,9.2,65,0.00,,,-99.99,FreeWX 2.04,2013-11-18 16:06:00,
2013-11-18 11:11:00,35.8,25.2,29.50,WNW,291,4.0,9.6,65,0.00,,,-99.99,FreeWX 2.04,2013-11-18 16:11:00,
2013-11-18 11:16:00,36.0,26.1,29.50,WNW,293,4.0,8.7,67,0.00,,,-99.99,FreeWX 2.04,2013-11-18 16:16:00,
2013-11-18 11:21:00,36.1,26.2,29.50,WNW,292,4.0,7.4,67,0.00,,,-99.99,FreeWX 2.04,2013-11-18 16:21:00,
2013-11-18 11:26:00,36.0,26.1,29.53,WNW,301,4.0,6.7,67,0.00,,,-99.99,FreeWX 2.04,2013-11-18 16:26:00,
2013-11-18 11:31:00,35.6,25.7,29.53,WNW,299,4.0,10.5,67,0.00,,,-99.99,FreeWX 2.04,2013-11-18 16:31:00,
2013-11-18 11:36:00,35.8,25.9,29.53,WNW,297,5.0,9.2,67,0.00,,,-99.99,FreeWX 2.04,2013-11-18 16:36:00,
2013-11-18 11:41:00,36.0,26.1,29.53,WNW,289,5.0,8.7,67,0.00,,,-99.99,FreeWX 2.04,2013-11-18 16:41:00,
2013-11-18 11:46:00,36.1,26.2,29.53,WNW,292,4.0,7.8,67,0.00,,,-99.99,FreeWX 2.04,2013-11-18 16:46:00,
2013-11-18 11:51:00,36.9,27.0,29.53,NW,306,4.0,6.3,67,0.00,,,-99.99,FreeWX 2.04,2013-11-18 16:51:00,
2013-11-18 11:56:00,36.7,25.3,29.53,WNW,291,5.0,14.8,63,0.00,,,-99.99,FreeWX 2.04,2013-11-18 16:56:00,
2013-11-18 12:01:00,36.9,22.3,29.53,WNW,290,5.0,8.7,55,0.00,,,-99.99,FreeWX 2.04,2013-11-18 17:01:00,
2013-11-18 12:06:00,37.4,20.5,29.53,WNW,296,5.0,9.6,50,0.00,,,-99.99,FreeWX 2.04,2013-11-18 17:06:00,
2013-11-18 12:11:00,37.8,17.2,29.53,WNW,287,5.0,12.5,43,0.00,,,-99.99,FreeWX 2.04,2013-11-18 17:11:00,
2013-11-18 12:16:00,38.8,17.2,29.53,WNW,283,5.0,12.5,41,0.00,,,-99.99,FreeWX 2.04,2013-11-18 17:16:00,
2013-11-18 12:21:00,39.2,16.3,29.53,WNW,292,5.0,10.1,39,0.00,,,-99.99,FreeWX 2.04,2013-11-18 17:21:00,
2013-11-18 12:26:00,38.5,11.8,29.53,NW,307,6.0,13.9,33,0.00,,,-99.99,FreeWX 2.04,2013-11-18 17:26:00,
2013-11-18 12:31:00,39.0,14.4,29.53,WNW,291,5.0,10.5,36,0.00,,,-99.99,FreeWX 2.04,2013-11-18 17:31:00,
2013-11-18 12:36:00,39.2,11.8,29.53,WNW,288,5.0,11.0,32,0.00,,,-99.99,FreeWX 2.04,2013-11-18 17:36:00,
2013-11-18 12:41:00,39.2,12.6,29.56,WNW,296,6.0,11.6,33,0.00,,,-99.99,FreeWX 2.04,2013-11-18 17:41:00,
2013-11-18 12:46:00,39.0,11.7,29.56,WNW,294,6.0,10.5,32,0.00,,,-99.99,FreeWX 2.04,2013-11-18 17:46:00,
2013-11-18 12:51:00,39.7,14.4,29.56,WNW,300,5.0,9.2,35,0.00,,,-99.99,FreeWX 2.04,2013-11-18 17:51:00,
2013-11-18 12:56:00,39.4,12.7,29.56,WNW,298,4.0,7.4,33,0.00,,,-99.99,FreeWX 2.04,2013-11-18 17:56:00,
2013-11-18 13:01:00,39.2,13.3,29.56,NW,309,4.0,8.3,34,0.00,,,-99.99,FreeWX 2.04,2013-11-18 18:01:00,
2013-11-18 13:06:00,38.3,13.6,29.56,NW,321,4.0,6.7,36,0.00,,,-99.99,FreeWX 2.04,2013-11-18 18:06:00,
2013-11-18 13:11:00,36.9,14.2,29.56,NW,316,4.0,7.8,39,0.00,,,-99.99,FreeWX 2.04,2013-11-18 18:11:00,
2013-11-18 13:16:00,35.2,14.0,29.56,NW,315,4.0,9.2,41,0.00,,,-99.99,FreeWX 2.04,2013-11-18 18:16:00,
2013-11-18 13:21:00,34.5,16.0,29.56,NW,315,5.0,10.1,46,0.00,,,-99.99,FreeWX 2.04,2013-11-18 18:21:00,
2013-11-18 13:26:00,33.6,16.0,29.59,NW,310,5.0,11.2,48,0.00,,,-99.99,FreeWX 2.04,2013-11-18 18:26:00,
2013-11-18 13:31:00,33.6,17.4,29.59,WNW,296,5.0,8.7,51,0.00,,,-99.99,FreeWX 2.04,2013-11-18 18:31:00,